This is the latest recevied weather packets stored in our database for station/object DL4YM-13. If no packets are shown the sender has not sent any weather packets the latest 10 day(s).
| Time | Temp. | Humidity | Pressure | Rain* | Wind** | Luminosity | Snow |
|---|---|---|---|---|---|---|---|
| 1777688725 | 10° C | 62% | 1005.3 hPa | - | - | - | - |
| 1777688125 | 10° C | 62% | 1005.4 hPa | - | - | - | - |
| 1777687525 | 10° C | 62% | 1005.4 hPa | - | - | - | - |
| 1777686925 | 9.44° C | 65% | 1005.8 hPa | - | - | - | - |
| 1777686325 | 9.44° C | 65% | 1005.8 hPa | - | - | - | - |
| 1777685725 | 9.44° C | 65% | 1005.8 hPa | - | - | - | - |
| 1777685125 | 9.44° C | 65% | 1005.8 hPa | - | - | - | - |
| 1777684525 | 10° C | 64% | 1005.8 hPa | - | - | - | - |
| 1777683925 | 10° C | 62% | 1005.9 hPa | - | - | - | - |
| 1777683325 | 10° C | 62% | 1006 hPa | - | - | - | - |
| 1777682725 | 10.56° C | 61% | 1006.2 hPa | - | - | - | - |
| 1777682125 | 10.56° C | 61% | 1006.2 hPa | - | - | - | - |
| 1777681525 | 10.56° C | 60% | 1006.2 hPa | - | - | - | - |
| 1777680925 | 11.11° C | 60% | 1006.3 hPa | - | - | - | - |
| 1777680325 | 11.67° C | 57% | 1006.3 hPa | - | - | - | - |
| 1777679726 | 11.67° C | 56% | 1006.4 hPa | - | - | - | - |
| 1777679125 | 11.67° C | 56% | 1006.4 hPa | - | - | - | - |
| 1777678525 | 11.67° C | 56% | 1006.5 hPa | - | - | - | - |
| 1777677925 | 12.22° C | 55% | 1006.5 hPa | - | - | - | - |
| 1777677325 | 12.22° C | 54% | 1006.5 hPa | - | - | - | - |
| 1777676725 | 12.78° C | 54% | 1006.7 hPa | - | - | - | - |
| 1777676125 | 12.78° C | 52% | 1006.8 hPa | - | - | - | - |
| 1777675525 | 12.78° C | 53% | 1006.8 hPa | - | - | - | - |
| 1777674925 | 13.33° C | 51% | 1006.8 hPa | - | - | - | - |
| 1777674327 | 13.89° C | 49% | 1006.9 hPa | - | - | - | - |
* Rain since midnight (hover to see other rain measurements)
** Current wind speed in m/s (hover to see current wind gust speed)